sensor_id;sensor_type;location;lat;lon;timestamp;P1;durP1;ratioP1;P2;durP2;ratioP2
15929;SDS011;8064;51.142;4.780;2023-06-24T00:01:10;5.00;;;4.57;;
15929;SDS011;8064;51.142;4.780;2023-06-24T00:03:38;4.68;;;4.18;;
15929;SDS011;8064;51.142;4.780;2023-06-24T00:06:04;5.03;;;4.50;;
15929;SDS011;8064;51.142;4.780;2023-06-24T00:08:30;5.45;;;4.60;;
15929;SDS011;8064;51.142;4.780;2023-06-24T00:11:00;5.13;;;4.63;;
15929;SDS011;8064;51.142;4.780;2023-06-24T00:13:27;4.67;;;4.27;;
15929;SDS011;8064;51.142;4.780;2023-06-24T00:15:54;5.53;;;4.73;;
15929;SDS011;8064;51.142;4.780;2023-06-24T00:18:20;5.80;;;4.53;;
15929;SDS011;8064;51.142;4.780;2023-06-24T00:20:49;5.80;;;5.17;;
15929;SDS011;8064;51.142;4.780;2023-06-24T00:23:16;6.07;;;5.00;;
15929;SDS011;8064;51.142;4.780;2023-06-24T00:25:49;5.97;;;4.50;;
15929;SDS011;8064;51.142;4.780;2023-06-24T00:28:15;5.80;;;5.20;;
15929;SDS011;8064;51.142;4.780;2023-06-24T00:30:41;5.30;;;4.60;;
15929;SDS011;8064;51.142;4.780;2023-06-24T00:33:07;5.40;;;4.70;;
15929;SDS011;8064;51.142;4.780;2023-06-24T00:35:36;6.27;;;5.00;;
15929;SDS011;8064;51.142;4.780;2023-06-24T00:38:03;5.50;;;4.80;;
15929;SDS011;8064;51.142;4.780;2023-06-24T00:40:29;6.17;;;4.80;;
15929;SDS011;8064;51.142;4.780;2023-06-24T00:42:55;5.67;;;5.17;;
15929;SDS011;8064;51.142;4.780;2023-06-24T00:45:21;4.77;;;4.37;;
15929;SDS011;8064;51.142;4.780;2023-06-24T00:47:47;7.03;;;5.10;;
15929;SDS011;8064;51.142;4.780;2023-06-24T00:50:14;5.67;;;4.93;;
15929;SDS011;8064;51.142;4.780;2023-06-24T00:52:41;5.07;;;4.67;;
15929;SDS011;8064;51.142;4.780;2023-06-24T00:55:08;6.00;;;5.00;;
15929;SDS011;8064;51.142;4.780;2023-06-24T00:57:37;5.97;;;5.37;;
15929;SDS011;8064;51.142;4.780;2023-06-24T01:00:04;5.87;;;5.10;;
15929;SDS011;8064;51.142;4.780;2023-06-24T01:02:38;5.93;;;5.00;;
15929;SDS011;8064;51.142;4.780;2023-06-24T01:05:06;6.83;;;4.87;;
15929;SDS011;8064;51.142;4.780;2023-06-24T01:07:32;7.77;;;5.10;;
15929;SDS011;8064;51.142;4.780;2023-06-24T01:10:01;5.43;;;4.63;;
15929;SDS011;8064;51.142;4.780;2023-06-24T01:12:30;6.27;;;5.67;;
15929;SDS011;8064;51.142;4.780;2023-06-24T01:14:58;6.67;;;5.33;;
15929;SDS011;8064;51.142;4.780;2023-06-24T01:17:26;7.20;;;5.03;;
15929;SDS011;8064;51.142;4.780;2023-06-24T01:20:11;7.67;;;5.40;;
15929;SDS011;8064;51.142;4.780;2023-06-24T01:28:24;7.67;;;5.00;;
15929;SDS011;8064;51.142;4.780;2023-06-24T01:30:55;5.60;;;5.10;;
15929;SDS011;8064;51.142;4.780;2023-06-24T01:33:46;5.37;;;4.93;;
15929;SDS011;8064;51.142;4.780;2023-06-24T01:36:15;7.63;;;4.87;;
15929;SDS011;8064;51.142;4.780;2023-06-24T01:38:46;5.50;;;4.73;;
15929;SDS011;8064;51.142;4.780;2023-06-24T01:41:18;5.80;;;4.47;;
15929;SDS011;8064;51.142;4.780;2023-06-24T01:43:50;5.70;;;4.53;;
15929;SDS011;8064;51.142;4.780;2023-06-24T01:46:21;6.43;;;5.53;;
15929;SDS011;8064;51.142;4.780;2023-06-24T01:48:48;5.03;;;4.63;;
15929;SDS011;8064;51.142;4.780;2023-06-24T01:51:18;6.23;;;5.13;;
15929;SDS011;8064;51.142;4.780;2023-06-24T01:56:28;5.73;;;5.03;;
15929;SDS011;8064;51.142;4.780;2023-06-24T01:58:55;7.00;;;5.07;;
15929;SDS011;8064;51.142;4.780;2023-06-24T02:01:23;6.27;;;5.03;;
15929;SDS011;8064;51.142;4.780;2023-06-24T02:03:50;5.53;;;4.60;;
15929;SDS011;8064;51.142;4.780;2023-06-24T02:06:19;5.17;;;4.67;;
15929;SDS011;8064;51.142;4.780;2023-06-24T02:08:45;5.80;;;5.27;;
15929;SDS011;8064;51.142;4.780;2023-06-24T02:11:14;8.00;;;5.23;;
15929;SDS011;8064;51.142;4.780;2023-06-24T02:13:42;6.23;;;5.13;;
15929;SDS011;8064;51.142;4.780;2023-06-24T02:16:08;6.60;;;5.23;;
15929;SDS011;8064;51.142;4.780;2023-06-24T02:18:36;10.67;;;5.30;;
15929;SDS011;8064;51.142;4.780;2023-06-24T02:21:03;5.70;;;4.63;;
15929;SDS011;8064;51.142;4.780;2023-06-24T02:23:30;5.57;;;5.07;;
15929;SDS011;8064;51.142;4.780;2023-06-24T02:25:57;6.20;;;5.17;;
15929;SDS011;8064;51.142;4.780;2023-06-24T02:28:23;5.93;;;5.30;;
15929;SDS011;8064;51.142;4.780;2023-06-24T02:30:49;5.47;;;4.97;;
15929;SDS011;8064;51.142;4.780;2023-06-24T02:33:16;5.77;;;5.10;;
15929;SDS011;8064;51.142;4.780;2023-06-24T02:35:42;7.50;;;4.60;;
15929;SDS011;8064;51.142;4.780;2023-06-24T02:38:10;5.47;;;4.97;;
15929;SDS011;8064;51.142;4.780;2023-06-24T02:40:36;6.87;;;4.93;;
15929;SDS011;8064;51.142;4.780;2023-06-24T02:43:02;7.03;;;5.17;;
15929;SDS011;8064;51.142;4.780;2023-06-24T02:45:28;6.13;;;5.57;;
15929;SDS011;8064;51.142;4.780;2023-06-24T02:47:54;6.50;;;5.27;;
15929;SDS011;8064;51.142;4.780;2023-06-24T02:50:22;6.30;;;5.50;;
15929;SDS011;8064;51.142;4.780;2023-06-24T02:52:49;10.17;;;5.70;;
15929;SDS011;8064;51.142;4.780;2023-06-24T02:55:16;5.97;;;5.37;;
15929;SDS011;8064;51.142;4.780;2023-06-24T02:57:42;8.73;;;5.43;;
15929;SDS011;8064;51.142;4.780;2023-06-24T03:00:09;8.20;;;5.40;;
15929;SDS011;8064;51.142;4.780;2023-06-24T03:02:38;7.83;;;5.53;;
15929;SDS011;8064;51.142;4.780;2023-06-24T03:05:04;5.33;;;4.80;;
15929;SDS011;8064;51.142;4.780;2023-06-24T03:07:32;8.30;;;6.13;;
15929;SDS011;8064;51.142;4.780;2023-06-24T03:10:02;5.80;;;5.20;;
15929;SDS011;8064;51.142;4.780;2023-06-24T03:12:28;6.17;;;5.57;;
15929;SDS011;8064;51.142;4.780;2023-06-24T03:14:54;8.10;;;6.27;;
15929;SDS011;8064;51.142;4.780;2023-06-24T03:17:20;9.80;;;5.63;;
15929;SDS011;8064;51.142;4.780;2023-06-24T03:19:46;6.57;;;5.33;;
15929;SDS011;8064;51.142;4.780;2023-06-24T03:22:11;8.13;;;5.50;;
15929;SDS011;8064;51.142;4.780;2023-06-24T03:24:37;7.43;;;5.73;;
15929;SDS011;8064;51.142;4.780;2023-06-24T03:27:03;11.43;;;5.83;;
15929;SDS011;8064;51.142;4.780;2023-06-24T03:29:29;7.90;;;5.47;;
15929;SDS011;8064;51.142;4.780;2023-06-24T03:31:55;12.00;;;6.60;;
15929;SDS011;8064;51.142;4.780;2023-06-24T03:34:20;8.63;;;5.73;;
15929;SDS011;8064;51.142;4.780;2023-06-24T03:36:46;6.97;;;5.47;;
15929;SDS011;8064;51.142;4.780;2023-06-24T03:39:12;9.70;;;5.20;;
15929;SDS011;8064;51.142;4.780;2023-06-24T03:41:38;6.43;;;5.60;;
15929;SDS011;8064;51.142;4.780;2023-06-24T03:44:04;7.80;;;6.00;;
15929;SDS011;8064;51.142;4.780;2023-06-24T03:46:30;7.93;;;6.17;;
15929;SDS011;8064;51.142;4.780;2023-06-24T03:48:58;7.77;;;5.57;;
15929;SDS011;8064;51.142;4.780;2023-06-24T03:51:24;7.37;;;5.43;;
15929;SDS011;8064;51.142;4.780;2023-06-24T03:53:50;6.20;;;5.60;;
15929;SDS011;8064;51.142;4.780;2023-06-24T03:56:16;8.70;;;5.90;;
15929;SDS011;8064;51.142;4.780;2023-06-24T03:58:42;7.03;;;5.77;;
15929;SDS011;8064;51.142;4.780;2023-06-24T04:01:09;9.00;;;6.00;;
15929;SDS011;8064;51.142;4.780;2023-06-24T04:03:35;10.67;;;6.40;;
15929;SDS011;8064;51.142;4.780;2023-06-24T04:06:01;9.63;;;6.20;;
15929;SDS011;8064;51.142;4.780;2023-06-24T04:08:27;8.93;;;6.07;;
15929;SDS011;8064;51.142;4.780;2023-06-24T04:10:54;7.43;;;6.63;;
15929;SDS011;8064;51.142;4.780;2023-06-24T04:13:21;8.50;;;6.17;;
15929;SDS011;8064;51.142;4.780;2023-06-24T04:15:46;9.57;;;5.80;;
15929;SDS011;8064;51.142;4.780;2023-06-24T04:18:12;10.77;;;6.20;;
15929;SDS011;8064;51.142;4.780;2023-06-24T04:20:38;7.63;;;5.97;;
15929;SDS011;8064;51.142;4.780;2023-06-24T04:23:04;7.90;;;5.60;;
15929;SDS011;8064;51.142;4.780;2023-06-24T04:25:31;6.93;;;5.67;;
15929;SDS011;8064;51.142;4.780;2023-06-24T04:27:56;6.90;;;6.03;;
15929;SDS011;8064;51.142;4.780;2023-06-24T04:30:22;7.47;;;6.23;;
15929;SDS011;8064;51.142;4.780;2023-06-24T04:32:48;9.03;;;5.53;;
15929;SDS011;8064;51.142;4.780;2023-06-24T04:35:14;7.37;;;5.43;;
15929;SDS011;8064;51.142;4.780;2023-06-24T04:37:40;8.53;;;6.13;;
15929;SDS011;8064;51.142;4.780;2023-06-24T04:40:06;7.07;;;5.60;;
15929;SDS011;8064;51.142;4.780;2023-06-24T04:42:32;7.53;;;6.10;;
15929;SDS011;8064;51.142;4.780;2023-06-24T04:44:58;6.10;;;5.50;;
15929;SDS011;8064;51.142;4.780;2023-06-24T04:47:23;8.57;;;5.37;;
15929;SDS011;8064;51.142;4.780;2023-06-24T04:49:49;5.53;;;4.90;;
15929;SDS011;8064;51.142;4.780;2023-06-24T04:52:15;5.73;;;5.13;;
15929;SDS011;8064;51.142;4.780;2023-06-24T04:54:41;5.63;;;5.13;;
15929;SDS011;8064;51.142;4.780;2023-06-24T04:57:08;6.70;;;4.90;;
15929;SDS011;8064;51.142;4.780;2023-06-24T04:59:47;5.50;;;4.97;;
15929;SDS011;8064;51.142;4.780;2023-06-24T05:02:13;5.73;;;5.13;;
15929;SDS011;8064;51.142;4.780;2023-06-24T05:04:39;5.00;;;4.60;;
15929;SDS011;8064;51.142;4.780;2023-06-24T05:07:04;5.70;;;4.50;;
15929;SDS011;8064;51.142;4.780;2023-06-24T05:09:30;7.60;;;4.90;;
15929;SDS011;8064;51.142;4.780;2023-06-24T05:11:56;7.30;;;5.00;;
15929;SDS011;8064;51.142;4.780;2023-06-24T05:14:21;6.53;;;4.67;;
15929;SDS011;8064;51.142;4.780;2023-06-24T05:16:47;7.00;;;4.80;;
15929;SDS011;8064;51.142;4.780;2023-06-24T05:19:13;7.07;;;4.97;;
15929;SDS011;8064;51.142;4.780;2023-06-24T05:21:39;7.00;;;4.77;;
15929;SDS011;8064;51.142;4.780;2023-06-24T05:24:05;4.53;;;4.13;;
15929;SDS011;8064;51.142;4.780;2023-06-24T05:26:31;5.57;;;4.03;;
15929;SDS011;8064;51.142;4.780;2023-06-24T05:28:56;5.30;;;3.90;;
15929;SDS011;8064;51.142;4.780;2023-06-24T05:31:22;4.80;;;3.93;;
15929;SDS011;8064;51.142;4.780;2023-06-24T05:33:48;6.53;;;4.43;;
15929;SDS011;8064;51.142;4.780;2023-06-24T05:36:13;4.40;;;3.97;;
15929;SDS011;8064;51.142;4.780;2023-06-24T05:38:39;7.83;;;4.30;;
15929;SDS011;8064;51.142;4.780;2023-06-24T05:41:05;6.87;;;4.07;;
15929;SDS011;8064;51.142;4.780;2023-06-24T05:43:31;4.13;;;3.70;;
15929;SDS011;8064;51.142;4.780;2023-06-24T05:45:57;5.43;;;4.00;;
15929;SDS011;8064;51.142;4.780;2023-06-24T05:48:22;4.50;;;4.10;;
15929;SDS011;8064;51.142;4.780;2023-06-24T05:50:48;4.93;;;3.27;;
15929;SDS011;8064;51.142;4.780;2023-06-24T05:53:14;4.93;;;4.03;;
15929;SDS011;8064;51.142;4.780;2023-06-24T05:55:39;5.30;;;3.80;;
15929;SDS011;8064;51.142;4.780;2023-06-24T05:58:05;3.60;;;3.30;;
15929;SDS011;8064;51.142;4.780;2023-06-24T06:00:31;4.83;;;3.60;;
15929;SDS011;8064;51.142;4.780;2023-06-24T06:02:57;4.17;;;3.50;;
15929;SDS011;8064;51.142;4.780;2023-06-24T06:05:22;5.55;;;3.90;;
15929;SDS011;8064;51.142;4.780;2023-06-24T06:07:48;3.93;;;3.60;;
15929;SDS011;8064;51.142;4.780;2023-06-24T06:10:14;4.30;;;3.53;;
15929;SDS011;8064;51.142;4.780;2023-06-24T06:12:42;5.33;;;3.73;;
15929;SDS011;8064;51.142;4.780;2023-06-24T06:15:09;4.70;;;3.33;;
15929;SDS011;8064;51.142;4.780;2023-06-24T06:17:35;3.93;;;3.47;;
15929;SDS011;8064;51.142;4.780;2023-06-24T06:20:01;5.30;;;3.90;;
15929;SDS011;8064;51.142;4.780;2023-06-24T06:22:27;5.55;;;3.88;;
15929;SDS011;8064;51.142;4.780;2023-06-24T06:24:52;4.57;;;3.67;;
15929;SDS011;8064;51.142;4.780;2023-06-24T06:27:18;4.97;;;3.38;;
15929;SDS011;8064;51.142;4.780;2023-06-24T06:29:44;6.88;;;4.40;;
15929;SDS011;8064;51.142;4.780;2023-06-24T06:32:10;5.95;;;4.55;;
15929;SDS011;8064;51.142;4.780;2023-06-24T06:34:36;4.75;;;3.70;;
15929;SDS011;8064;51.142;4.780;2023-06-24T06:37:01;6.20;;;3.85;;
15929;SDS011;8064;51.142;4.780;2023-06-24T06:39:27;5.28;;;3.90;;
15929;SDS011;8064;51.142;4.780;2023-06-24T06:41:53;7.47;;;4.45;;
15929;SDS011;8064;51.142;4.780;2023-06-24T06:44:19;5.10;;;4.57;;
15929;SDS011;8064;51.142;4.780;2023-06-24T06:46:45;5.75;;;4.18;;
15929;SDS011;8064;51.142;4.780;2023-06-24T06:49:10;5.93;;;4.03;;
15929;SDS011;8064;51.142;4.780;2023-06-24T06:51:36;5.03;;;4.45;;
15929;SDS011;8064;51.142;4.780;2023-06-24T06:54:02;4.35;;;3.95;;
15929;SDS011;8064;51.142;4.780;2023-06-24T06:56:28;6.10;;;4.15;;
15929;SDS011;8064;51.142;4.780;2023-06-24T06:58:53;8.70;;;4.10;;
15929;SDS011;8064;51.142;4.780;2023-06-24T07:01:19;4.20;;;3.80;;
15929;SDS011;8064;51.142;4.780;2023-06-24T07:03:45;4.10;;;3.70;;
15929;SDS011;8064;51.142;4.780;2023-06-24T07:06:11;6.18;;;4.50;;
15929;SDS011;8064;51.142;4.780;2023-06-24T07:08:36;5.60;;;4.13;;
15929;SDS011;8064;51.142;4.780;2023-06-24T07:11:02;4.90;;;4.13;;
15929;SDS011;8064;51.142;4.780;2023-06-24T07:13:28;7.30;;;4.38;;
15929;SDS011;8064;51.142;4.780;2023-06-24T07:15:54;4.55;;;3.88;;
15929;SDS011;8064;51.142;4.780;2023-06-24T07:18:20;4.15;;;3.60;;
15929;SDS011;8064;51.142;4.780;2023-06-24T07:20:46;4.10;;;3.65;;
15929;SDS011;8064;51.142;4.780;2023-06-24T07:23:11;4.35;;;3.85;;
15929;SDS011;8064;51.142;4.780;2023-06-24T07:25:37;6.50;;;4.25;;
15929;SDS011;8064;51.142;4.780;2023-06-24T07:28:03;6.28;;;3.70;;
15929;SDS011;8064;51.142;4.780;2023-06-24T07:30:29;7.45;;;3.58;;
15929;SDS011;8064;51.142;4.780;2023-06-24T07:32:55;4.38;;;3.83;;
15929;SDS011;8064;51.142;4.780;2023-06-24T07:35:20;4.75;;;3.30;;
15929;SDS011;8064;51.142;4.780;2023-06-24T07:37:46;6.75;;;4.10;;
15929;SDS011;8064;51.142;4.780;2023-06-24T07:40:12;4.18;;;3.38;;
15929;SDS011;8064;51.142;4.780;2023-06-24T07:42:38;4.70;;;3.50;;
15929;SDS011;8064;51.142;4.780;2023-06-24T07:45:04;4.57;;;3.30;;
15929;SDS011;8064;51.142;4.780;2023-06-24T07:47:30;3.80;;;3.40;;
15929;SDS011;8064;51.142;4.780;2023-06-24T07:49:57;3.58;;;3.17;;
15929;SDS011;8064;51.142;4.780;2023-06-24T07:52:23;3.95;;;3.13;;
15929;SDS011;8064;51.142;4.780;2023-06-24T07:54:48;5.65;;;4.22;;
15929;SDS011;8064;51.142;4.780;2023-06-24T07:57:14;4.53;;;3.72;;
15929;SDS011;8064;51.142;4.780;2023-06-24T07:59:40;3.78;;;3.45;;
15929;SDS011;8064;51.142;4.780;2023-06-24T08:02:06;4.00;;;3.60;;
15929;SDS011;8064;51.142;4.780;2023-06-24T08:04:32;3.85;;;3.40;;
15929;SDS011;8064;51.142;4.780;2023-06-24T08:06:58;4.38;;;3.75;;
15929;SDS011;8064;51.142;4.780;2023-06-24T08:09:23;4.18;;;3.80;;
15929;SDS011;8064;51.142;4.780;2023-06-24T08:11:49;4.15;;;3.22;;
15929;SDS011;8064;51.142;4.780;2023-06-24T08:14:15;4.15;;;3.45;;
15929;SDS011;8064;51.142;4.780;2023-06-24T08:16:41;4.60;;;3.47;;
15929;SDS011;8064;51.142;4.780;2023-06-24T08:19:06;4.20;;;3.80;;
15929;SDS011;8064;51.142;4.780;2023-06-24T08:21:32;5.28;;;3.58;;
15929;SDS011;8064;51.142;4.780;2023-06-24T08:23:59;3.92;;;3.00;;
15929;SDS011;8064;51.142;4.780;2023-06-24T08:26:25;3.50;;;2.72;;
15929;SDS011;8064;51.142;4.780;2023-06-24T08:28:51;3.15;;;2.60;;
15929;SDS011;8064;51.142;4.780;2023-06-24T08:31:16;3.80;;;2.75;;
15929;SDS011;8064;51.142;4.780;2023-06-24T08:33:44;3.92;;;3.30;;
15929;SDS011;8064;51.142;4.780;2023-06-24T08:36:10;4.22;;;3.13;;
15929;SDS011;8064;51.142;4.780;2023-06-24T08:38:36;3.25;;;2.83;;
15929;SDS011;8064;51.142;4.780;2023-06-24T08:41:02;3.70;;;3.03;;
15929;SDS011;8064;51.142;4.780;2023-06-24T08:43:28;3.90;;;3.40;;
15929;SDS011;8064;51.142;4.780;2023-06-24T08:45:53;6.63;;;3.05;;
15929;SDS011;8064;51.142;4.780;2023-06-24T08:48:20;3.90;;;2.75;;
15929;SDS011;8064;51.142;4.780;2023-06-24T08:50:49;3.97;;;2.60;;
15929;SDS011;8064;51.142;4.780;2023-06-24T08:53:18;4.55;;;2.60;;
15929;SDS011;8064;51.142;4.780;2023-06-24T08:55:45;2.85;;;2.55;;
15929;SDS011;8064;51.142;4.780;2023-06-24T08:58:12;5.35;;;2.80;;
15929;SDS011;8064;51.142;4.780;2023-06-24T09:00:39;5.82;;;2.50;;
15929;SDS011;8064;51.142;4.780;2023-06-24T09:03:07;4.63;;;2.65;;
15929;SDS011;8064;51.142;4.780;2023-06-24T09:05:33;2.13;;;1.92;;
15929;SDS011;8064;51.142;4.780;2023-06-24T09:07:59;4.03;;;2.47;;
15929;SDS011;8064;51.142;4.780;2023-06-24T09:13:06;3.10;;;2.67;;
15929;SDS011;8064;51.142;4.780;2023-06-24T09:15:33;2.72;;;2.38;;
15929;SDS011;8064;51.142;4.780;2023-06-24T09:18:01;2.97;;;2.22;;
15929;SDS011;8064;51.142;4.780;2023-06-24T09:20:28;3.75;;;2.65;;
15929;SDS011;8064;51.142;4.780;2023-06-24T09:23:05;5.32;;;2.83;;
15929;SDS011;8064;51.142;4.780;2023-06-24T09:25:31;4.38;;;2.60;;
15929;SDS011;8064;51.142;4.780;2023-06-24T09:30:41;3.42;;;2.17;;
15929;SDS011;8064;51.142;4.780;2023-06-24T09:33:10;4.78;;;2.10;;
15929;SDS011;8064;51.142;4.780;2023-06-24T09:35:37;2.58;;;2.35;;
15929;SDS011;8064;51.142;4.780;2023-06-24T09:38:03;4.75;;;2.63;;
15929;SDS011;8064;51.142;4.780;2023-06-24T09:40:29;4.47;;;2.53;;
15929;SDS011;8064;51.142;4.780;2023-06-24T09:43:00;2.10;;;1.95;;
15929;SDS011;8064;51.142;4.780;2023-06-24T09:45:27;2.53;;;2.03;;
15929;SDS011;8064;51.142;4.780;2023-06-24T09:47:54;3.65;;;2.10;;
15929;SDS011;8064;51.142;4.780;2023-06-24T09:50:22;2.85;;;1.92;;
15929;SDS011;8064;51.142;4.780;2023-06-24T09:52:49;4.78;;;2.15;;
15929;SDS011;8064;51.142;4.780;2023-06-24T09:55:16;3.55;;;1.90;;
15929;SDS011;8064;51.142;4.780;2023-06-24T09:57:45;1.83;;;1.60;;
15929;SDS011;8064;51.142;4.780;2023-06-24T10:00:13;11.07;;;2.58;;
15929;SDS011;8064;51.142;4.780;2023-06-24T10:02:41;14.77;;;2.75;;
15929;SDS011;8064;51.142;4.780;2023-06-24T10:05:08;4.53;;;2.03;;
15929;SDS011;8064;51.142;4.780;2023-06-24T10:07:34;5.43;;;2.30;;
15929;SDS011;8064;51.142;4.780;2023-06-24T10:10:02;2.58;;;1.83;;
15929;SDS011;8064;51.142;4.780;2023-06-24T10:12:28;2.33;;;1.80;;
15929;SDS011;8064;51.142;4.780;2023-06-24T10:14:54;2.95;;;1.83;;
15929;SDS011;8064;51.142;4.780;2023-06-24T10:17:20;2.88;;;1.90;;
15929;SDS011;8064;51.142;4.780;2023-06-24T10:19:46;2.65;;;1.90;;
15929;SDS011;8064;51.142;4.780;2023-06-24T10:22:12;3.15;;;1.60;;
15929;SDS011;8064;51.142;4.780;2023-06-24T10:24:38;1.58;;;1.48;;
15929;SDS011;8064;51.142;4.780;2023-06-24T10:27:09;2.05;;;1.83;;
15929;SDS011;8064;51.142;4.780;2023-06-24T10:29:58;2.33;;;1.63;;
15929;SDS011;8064;51.142;4.780;2023-06-24T10:32:38;1.65;;;1.55;;
15929;SDS011;8064;51.142;4.780;2023-06-24T10:35:07;1.80;;;1.70;;
15929;SDS011;8064;51.142;4.780;2023-06-24T10:43:04;2.75;;;1.50;;
15929;SDS011;8064;51.142;4.780;2023-06-24T10:45:51;1.67;;;1.30;;
15929;SDS011;8064;51.142;4.780;2023-06-24T10:48:17;1.83;;;1.40;;
15929;SDS011;8064;51.142;4.780;2023-06-24T10:50:45;1.85;;;1.33;;
15929;SDS011;8064;51.142;4.780;2023-06-24T10:53:12;5.25;;;1.85;;
15929;SDS011;8064;51.142;4.780;2023-06-24T10:55:38;1.67;;;1.40;;
15929;SDS011;8064;51.142;4.780;2023-06-24T11:00:49;2.08;;;1.30;;
15929;SDS011;8064;51.142;4.780;2023-06-24T11:03:15;2.58;;;1.58;;
15929;SDS011;8064;51.142;4.780;2023-06-24T11:05:45;1.40;;;1.30;;
15929;SDS011;8064;51.142;4.780;2023-06-24T11:08:11;2.85;;;1.35;;
15929;SDS011;8064;51.142;4.780;2023-06-24T11:13:20;2.95;;;1.40;;
15929;SDS011;8064;51.142;4.780;2023-06-24T11:15:46;3.35;;;1.30;;
15929;SDS011;8064;51.142;4.780;2023-06-24T11:18:12;1.95;;;1.70;;
15929;SDS011;8064;51.142;4.780;2023-06-24T11:20:38;2.15;;;1.35;;
15929;SDS011;8064;51.142;4.780;2023-06-24T11:25:48;1.90;;;1.60;;
15929;SDS011;8064;51.142;4.780;2023-06-24T11:30:56;2.15;;;1.60;;
15929;SDS011;8064;51.142;4.780;2023-06-24T11:33:30;2.40;;;1.40;;
15929;SDS011;8064;51.142;4.780;2023-06-24T11:35:56;2.53;;;1.50;;
15929;SDS011;8064;51.142;4.780;2023-06-24T11:38:22;1.50;;;1.38;;
15929;SDS011;8064;51.142;4.780;2023-06-24T11:40:48;2.30;;;1.60;;
15929;SDS011;8064;51.142;4.780;2023-06-24T11:43:14;2.95;;;1.45;;
15929;SDS011;8064;51.142;4.780;2023-06-24T11:45:39;5.28;;;1.95;;
15929;SDS011;8064;51.142;4.780;2023-06-24T11:48:06;4.35;;;1.55;;
15929;SDS011;8064;51.142;4.780;2023-06-24T11:50:33;7.72;;;2.15;;
15929;SDS011;8064;51.142;4.780;2023-06-24T11:53:01;16.73;;;3.50;;
15929;SDS011;8064;51.142;4.780;2023-06-24T11:55:27;1.80;;;1.70;;
15929;SDS011;8064;51.142;4.780;2023-06-24T11:58:03;1.75;;;1.55;;
15929;SDS011;8064;51.142;4.780;2023-06-24T12:00:31;2.95;;;1.40;;
15929;SDS011;8064;51.142;4.780;2023-06-24T12:03:04;2.67;;;1.30;;
15929;SDS011;8064;51.142;4.780;2023-06-24T12:05:31;1.50;;;1.40;;
15929;SDS011;8064;51.142;4.780;2023-06-24T12:07:59;4.57;;;1.60;;
15929;SDS011;8064;51.142;4.780;2023-06-24T12:10:25;1.83;;;1.35;;
15929;SDS011;8064;51.142;4.780;2023-06-24T12:12:51;2.22;;;1.60;;
15929;SDS011;8064;51.142;4.780;2023-06-24T12:15:17;1.65;;;1.50;;
15929;SDS011;8064;51.142;4.780;2023-06-24T12:17:43;1.60;;;1.38;;
15929;SDS011;8064;51.142;4.780;2023-06-24T12:20:09;1.50;;;1.40;;
15929;SDS011;8064;51.142;4.780;2023-06-24T12:22:35;4.35;;;1.67;;
15929;SDS011;8064;51.142;4.780;2023-06-24T12:25:02;1.98;;;1.50;;
15929;SDS011;8064;51.142;4.780;2023-06-24T12:27:28;1.60;;;1.50;;
15929;SDS011;8064;51.142;4.780;2023-06-24T12:29:54;2.35;;;1.33;;
15929;SDS011;8064;51.142;4.780;2023-06-24T12:32:20;1.50;;;1.40;;
15929;SDS011;8064;51.142;4.780;2023-06-24T12:34:46;2.05;;;1.60;;
15929;SDS011;8064;51.142;4.780;2023-06-24T12:37:11;2.58;;;1.55;;
15929;SDS011;8064;51.142;4.780;2023-06-24T12:39:37;1.63;;;1.40;;
15929;SDS011;8064;51.142;4.780;2023-06-24T12:42:03;1.50;;;1.40;;
15929;SDS011;8064;51.142;4.780;2023-06-24T12:44:31;1.70;;;1.48;;
15929;SDS011;8064;51.142;4.780;2023-06-24T12:46:56;1.60;;;1.30;;
15929;SDS011;8064;51.142;4.780;2023-06-24T12:49:22;1.83;;;1.50;;
15929;SDS011;8064;51.142;4.780;2023-06-24T12:51:48;2.65;;;1.60;;
15929;SDS011;8064;51.142;4.780;2023-06-24T12:54:14;1.77;;;1.60;;
15929;SDS011;8064;51.142;4.780;2023-06-24T12:56:40;1.67;;;1.58;;
15929;SDS011;8064;51.142;4.780;2023-06-24T12:59:05;1.85;;;1.42;;
15929;SDS011;8064;51.142;4.780;2023-06-24T13:01:31;2.95;;;1.20;;
15929;SDS011;8064;51.142;4.780;2023-06-24T13:03:57;1.80;;;1.48;;
15929;SDS011;8064;51.142;4.780;2023-06-24T13:06:24;1.60;;;1.50;;
15929;SDS011;8064;51.142;4.780;2023-06-24T13:08:50;1.60;;;1.23;;
15929;SDS011;8064;51.142;4.780;2023-06-24T13:11:16;1.63;;;1.52;;
15929;SDS011;8064;51.142;4.780;2023-06-24T13:13:42;2.28;;;1.30;;
15929;SDS011;8064;51.142;4.780;2023-06-24T13:16:08;1.45;;;1.35;;
15929;SDS011;8064;51.142;4.780;2023-06-24T13:18:34;2.15;;;1.30;;
15929;SDS011;8064;51.142;4.780;2023-06-24T13:20:59;1.40;;;1.30;;
15929;SDS011;8064;51.142;4.780;2023-06-24T13:23:25;2.60;;;1.70;;
15929;SDS011;8064;51.142;4.780;2023-06-24T13:25:51;3.30;;;1.40;;
15929;SDS011;8064;51.142;4.780;2023-06-24T13:28:17;1.42;;;1.33;;
15929;SDS011;8064;51.142;4.780;2023-06-24T13:30:42;1.40;;;1.30;;
15929;SDS011;8064;51.142;4.780;2023-06-24T13:33:08;1.23;;;1.13;;
15929;SDS011;8064;51.142;4.780;2023-06-24T13:35:34;2.58;;;1.60;;
15929;SDS011;8064;51.142;4.780;2023-06-24T13:38:00;5.93;;;1.60;;
15929;SDS011;8064;51.142;4.780;2023-06-24T13:40:26;2.30;;;1.50;;
15929;SDS011;8064;51.142;4.780;2023-06-24T13:42:51;1.90;;;1.70;;
15929;SDS011;8064;51.142;4.780;2023-06-24T13:45:17;1.80;;;1.40;;
15929;SDS011;8064;51.142;4.780;2023-06-24T13:47:43;3.35;;;1.60;;
15929;SDS011;8064;51.142;4.780;2023-06-24T13:50:09;2.35;;;1.73;;
15929;SDS011;8064;51.142;4.780;2023-06-24T13:52:35;2.22;;;1.65;;
15929;SDS011;8064;51.142;4.780;2023-06-24T13:55:01;1.77;;;1.58;;
15929;SDS011;8064;51.142;4.780;2023-06-24T13:57:27;2.28;;;1.40;;
15929;SDS011;8064;51.142;4.780;2023-06-24T13:59:53;1.70;;;1.60;;
15929;SDS011;8064;51.142;4.780;2023-06-24T14:02:18;1.88;;;1.50;;
15929;SDS011;8064;51.142;4.780;2023-06-24T14:04:44;2.50;;;1.58;;
15929;SDS011;8064;51.142;4.780;2023-06-24T14:07:10;2.45;;;1.58;;
15929;SDS011;8064;51.142;4.780;2023-06-24T14:09:37;2.15;;;1.70;;
15929;SDS011;8064;51.142;4.780;2023-06-24T14:12:04;1.40;;;1.30;;
15929;SDS011;8064;51.142;4.780;2023-06-24T14:14:30;2.40;;;1.50;;
15929;SDS011;8064;51.142;4.780;2023-06-24T14:16:55;2.90;;;1.58;;
15929;SDS011;8064;51.142;4.780;2023-06-24T14:19:21;3.17;;;1.80;;
15929;SDS011;8064;51.142;4.780;2023-06-24T14:21:47;1.90;;;1.63;;
15929;SDS011;8064;51.142;4.780;2023-06-24T14:24:13;1.90;;;1.70;;
15929;SDS011;8064;51.142;4.780;2023-06-24T14:26:38;3.47;;;1.58;;
15929;SDS011;8064;51.142;4.780;2023-06-24T14:29:04;1.63;;;1.45;;
15929;SDS011;8064;51.142;4.780;2023-06-24T14:31:30;1.70;;;1.60;;
15929;SDS011;8064;51.142;4.780;2023-06-24T14:33:56;1.75;;;1.63;;
15929;SDS011;8064;51.142;4.780;2023-06-24T14:36:22;2.50;;;1.67;;
15929;SDS011;8064;51.142;4.780;2023-06-24T14:38:47;1.88;;;1.63;;
15929;SDS011;8064;51.142;4.780;2023-06-24T14:41:13;1.95;;;1.50;;
15929;SDS011;8064;51.142;4.780;2023-06-24T14:43:39;3.88;;;1.70;;
15929;SDS011;8064;51.142;4.780;2023-06-24T14:46:05;1.88;;;1.77;;
15929;SDS011;8064;51.142;4.780;2023-06-24T14:48:30;2.50;;;1.60;;
15929;SDS011;8064;51.142;4.780;2023-06-24T14:50:56;2.05;;;1.65;;
15929;SDS011;8064;51.142;4.780;2023-06-24T14:53:22;2.10;;;1.70;;
15929;SDS011;8064;51.142;4.780;2023-06-24T14:55:48;2.50;;;1.42;;
15929;SDS011;8064;51.142;4.780;2023-06-24T14:58:13;1.70;;;1.60;;
15929;SDS011;8064;51.142;4.780;2023-06-24T15:00:39;1.58;;;1.45;;
15929;SDS011;8064;51.142;4.780;2023-06-24T15:03:05;1.98;;;1.60;;
15929;SDS011;8064;51.142;4.780;2023-06-24T15:05:32;2.00;;;1.60;;
15929;SDS011;8064;51.142;4.780;2023-06-24T15:07:59;1.85;;;1.60;;
15929;SDS011;8064;51.142;4.780;2023-06-24T15:10:25;1.70;;;1.60;;
15929;SDS011;8064;51.142;4.780;2023-06-24T15:12:51;1.65;;;1.45;;
15929;SDS011;8064;51.142;4.780;2023-06-24T15:15:17;2.47;;;1.67;;
15929;SDS011;8064;51.142;4.780;2023-06-24T15:17:43;2.30;;;1.90;;
15929;SDS011;8064;51.142;4.780;2023-06-24T15:20:10;2.08;;;1.80;;
15929;SDS011;8064;51.142;4.780;2023-06-24T15:22:37;2.30;;;2.10;;
15929;SDS011;8064;51.142;4.780;2023-06-24T15:25:03;1.52;;;1.42;;
15929;SDS011;8064;51.142;4.780;2023-06-24T15:27:29;2.80;;;1.83;;